createdAt,value
2023-08-01T00:00:28.394Z,0.20
2023-08-01T00:02:57.411Z,1.50
2023-08-01T00:05:24.955Z,0.80
2023-08-01T00:07:52.542Z,0.25
2023-08-01T00:10:20.045Z,0.85
2023-08-01T00:12:47.513Z,0.20
2023-08-01T00:15:15.065Z,0.10
2023-08-01T00:17:42.566Z,2.37
2023-08-01T00:20:12.607Z,0.40
2023-08-01T00:22:40.107Z,0.20
2023-08-01T00:25:08.192Z,0.38
2023-08-01T00:27:39.826Z,0.47
2023-08-01T00:30:09.631Z,0.20
2023-08-01T00:32:37.458Z,0.32
2023-08-01T00:35:05.488Z,0.43
2023-08-01T00:37:34.326Z,0.30
2023-08-01T00:40:01.842Z,0.20
2023-08-01T00:42:29.482Z,0.33
2023-08-01T00:44:56.944Z,1.05
2023-08-01T00:47:24.622Z,0.75
2023-08-01T00:49:52.495Z,0.65
2023-08-01T00:52:19.988Z,0.57
2023-08-01T00:54:48.890Z,0.43
2023-08-01T00:57:16.418Z,1.33
2023-08-01T00:59:43.960Z,1.00
2023-08-01T01:02:12.840Z,0.65
2023-08-01T01:04:41.154Z,0.40
2023-08-01T01:07:09.166Z,0.40
2023-08-01T01:09:36.736Z,0.50
2023-08-01T01:12:06.289Z,0.40
2023-08-01T01:14:33.769Z,1.15
2023-08-01T01:17:01.589Z,0.40
2023-08-01T01:19:29.126Z,0.20
2023-08-01T01:21:59.751Z,0.10
2023-08-01T01:24:28.895Z,1.15
2023-08-01T01:27:00.518Z,0.85
2023-08-01T01:29:29.155Z,0.20
2023-08-01T01:31:57.756Z,0.40
2023-08-01T01:34:25.936Z,0.20
2023-08-01T01:36:53.438Z,0.20
2023-08-01T01:39:22.534Z,0.20
2023-08-01T01:41:50.070Z,1.15
2023-08-01T01:44:17.556Z,1.13
2023-08-01T01:46:45.187Z,0.20
2023-08-01T01:49:12.688Z,0.20
2023-08-01T01:51:40.209Z,0.17
2023-08-01T01:54:07.731Z,0.10
2023-08-01T01:56:37.087Z,2.10
2023-08-01T01:59:04.765Z,0.38
2023-08-01T02:01:32.282Z,0.32
2023-08-01T02:03:59.793Z,1.58
2023-08-01T02:06:27.335Z,0.10
2023-08-01T02:08:54.816Z,0.20
2023-08-01T02:11:22.317Z,0.40
2023-08-01T02:13:51.199Z,0.10
2023-08-01T02:16:18.685Z,0.20
2023-08-01T02:18:46.186Z,0.20
2023-08-01T02:21:13.732Z,0.10
2023-08-01T02:23:41.463Z,0.17
2023-08-01T02:26:09.425Z,0.10
2023-08-01T02:28:37.006Z,0.20
2023-08-01T02:31:05.927Z,0.10
2023-08-01T02:33:33.502Z,0.20
2023-08-01T02:36:01.077Z,0.17
2023-08-01T02:38:28.599Z,0.20
2023-08-01T02:40:56.099Z,0.22
2023-08-01T02:43:23.601Z,0.10
2023-08-01T02:45:51.160Z,0.67
2023-08-01T02:48:20.046Z,0.20
2023-08-01T02:50:47.714Z,1.00
2023-08-01T02:53:15.384Z,0.10
2023-08-01T02:55:42.885Z,0.10
2023-08-01T02:58:10.401Z,0.20
2023-08-01T03:00:41.368Z,0.20
2023-08-01T03:03:09.068Z,0.10
2023-08-01T03:05:39.342Z,0.10
2023-08-01T03:08:07.174Z,0.20
2023-08-01T03:10:37.291Z,1.47
2023-08-01T03:13:05.312Z,0.30
2023-08-01T03:15:32.874Z,0.35
2023-08-01T03:18:00.587Z,0.30
2023-08-01T03:20:28.206Z,1.27
2023-08-01T03:22:57.107Z,0.23
2023-08-01T03:25:24.649Z,0.50
2023-08-01T03:27:52.120Z,0.15
2023-08-01T03:30:20.042Z,0.85
2023-08-01T03:32:47.602Z,1.08
2023-08-01T03:35:15.827Z,1.80
2023-08-01T03:37:43.438Z,1.88
2023-08-01T03:40:12.456Z,1.33
2023-08-01T03:42:39.994Z,1.73
2023-08-01T03:45:08.592Z,2.50
2023-08-01T03:47:36.149Z,1.10
2023-08-01T03:50:03.970Z,2.90
2023-08-01T03:52:31.486Z,2.63
2023-08-01T03:54:58.991Z,2.05
2023-08-01T03:57:27.864Z,1.88
2023-08-01T03:59:55.365Z,1.43
2023-08-01T04:02:22.873Z,3.13
2023-08-01T04:04:50.394Z,6.20
2023-08-01T04:07:17.967Z,3.15
2023-08-01T04:09:45.644Z,3.08
2023-08-01T04:12:13.135Z,2.50
2023-08-01T04:14:42.261Z,3.10
2023-08-01T04:17:09.806Z,4.80
2023-08-01T04:19:37.300Z,2.97
2023-08-01T04:22:05.359Z,5.57
2023-08-01T04:24:32.979Z,3.17
2023-08-01T04:27:00.577Z,2.38
2023-08-01T04:29:28.130Z,2.88
2023-08-01T04:31:56.968Z,3.03
2023-08-01T04:34:24.680Z,2.75
2023-08-01T04:36:52.246Z,3.40
2023-08-01T04:39:19.750Z,4.82
2023-08-01T04:41:47.256Z,4.75
2023-08-01T04:44:14.886Z,3.03
2023-08-01T04:46:43.240Z,3.70
2023-08-01T04:49:12.325Z,6.87
2023-08-01T04:51:39.832Z,3.45
2023-08-01T04:54:07.352Z,4.18
2023-08-01T04:56:34.900Z,4.03
2023-08-01T04:59:03.304Z,6.43
2023-08-01T05:01:30.884Z,5.17
2023-08-01T05:03:59.083Z,5.68
2023-08-01T05:06:28.840Z,8.45
2023-08-01T05:08:56.468Z,5.90
2023-08-01T05:11:24.186Z,4.90
2023-08-01T05:13:51.699Z,4.50
2023-08-01T05:16:19.385Z,5.78
2023-08-01T05:18:47.058Z,7.35
2023-08-01T05:21:14.749Z,4.53
2023-08-01T05:23:43.612Z,6.93
2023-08-01T05:26:11.136Z,6.20
2023-08-01T05:28:38.774Z,5.93
2023-08-01T05:31:06.382Z,7.97
2023-08-01T05:33:33.953Z,6.85
2023-08-01T05:36:02.102Z,6.93
2023-08-01T05:38:29.611Z,6.93
2023-08-01T05:40:58.551Z,6.57
2023-08-01T05:43:26.072Z,7.53
2023-08-01T05:45:53.917Z,7.00
2023-08-01T05:48:21.617Z,5.95
2023-08-01T05:50:49.142Z,9.07
2023-08-01T05:53:16.635Z,8.43
2023-08-01T05:55:44.246Z,5.15
2023-08-01T05:58:13.255Z,5.82
2023-08-01T06:00:40.883Z,7.80
2023-08-01T06:03:08.766Z,8.53
2023-08-01T06:05:36.432Z,5.07
2023-08-01T06:08:04.574Z,4.65
2023-08-01T06:10:32.149Z,6.45
2023-08-01T06:12:59.618Z,5.57
2023-08-01T06:15:28.485Z,7.30
2023-08-01T06:17:56.079Z,5.68
2023-08-01T06:20:23.771Z,7.70
2023-08-01T06:22:51.307Z,5.88
2023-08-01T06:25:19.001Z,5.20
2023-08-01T06:27:46.572Z,4.13
2023-08-01T06:30:14.161Z,6.63
2023-08-01T06:32:43.029Z,6.75
2023-08-01T06:35:10.720Z,6.68
2023-08-01T06:37:38.225Z,5.57
2023-08-01T06:40:06.876Z,5.50
2023-08-01T06:42:34.389Z,6.43
2023-08-01T06:45:01.910Z,7.75
2023-08-01T06:47:29.418Z,6.53
2023-08-01T06:49:58.332Z,5.78
2023-08-01T06:52:25.829Z,5.40
2023-08-01T06:54:53.454Z,5.38
2023-08-01T06:57:21.005Z,5.45
2023-08-01T06:59:48.536Z,5.57
2023-08-01T07:02:16.464Z,6.53
2023-08-01T07:04:44.009Z,6.13
2023-08-01T07:07:12.860Z,5.45
2023-08-01T07:09:40.368Z,6.13
2023-08-01T07:12:09.026Z,4.25
2023-08-01T07:14:36.633Z,5.88
2023-08-01T07:17:04.272Z,4.17
2023-08-01T07:19:31.807Z,6.72
2023-08-01T07:21:59.562Z,5.47
2023-08-01T07:24:29.460Z,3.75
2023-08-01T07:26:57.225Z,6.07
2023-08-01T07:29:24.717Z,5.40
2023-08-01T07:31:52.312Z,5.50
2023-08-01T07:34:19.900Z,4.38
2023-08-01T07:36:49.509Z,5.03
2023-08-01T07:39:16.978Z,4.95
2023-08-01T07:41:45.849Z,5.70
2023-08-01T07:44:13.343Z,4.80
2023-08-01T07:46:41.105Z,5.05
2023-08-01T07:49:08.942Z,4.10
2023-08-01T07:51:37.296Z,4.80
2023-08-01T07:54:04.939Z,5.67
2023-08-01T07:56:32.477Z,4.65
2023-08-01T07:59:01.350Z,8.38
2023-08-01T08:01:29.032Z,7.97
2023-08-01T08:03:56.598Z,8.07
2023-08-01T08:06:24.743Z,6.93
2023-08-01T08:08:52.292Z,6.13
2023-08-01T08:11:19.825Z,6.38
2023-08-01T08:13:47.325Z,4.50
2023-08-01T08:16:16.572Z,4.93
2023-08-01T08:18:44.187Z,11.73
2023-08-01T08:21:11.757Z,7.53
2023-08-01T08:23:40.020Z,3.58
2023-08-01T08:26:08.064Z,6.05
2023-08-01T08:28:35.773Z,4.25
2023-08-01T08:31:04.395Z,7.70
2023-08-01T08:33:33.394Z,7.28
2023-08-01T08:36:01.010Z,6.13
2023-08-01T08:38:29.849Z,4.85
2023-08-01T08:41:10.191Z,5.03
2023-08-01T08:43:38.323Z,9.00
2023-08-01T08:46:06.783Z,5.10
2023-08-01T08:48:36.128Z,6.35
2023-08-01T08:51:05.275Z,3.72
2023-08-01T08:53:34.148Z,4.90
2023-08-01T08:56:02.623Z,2.43
2023-08-01T08:58:31.708Z,4.72
2023-08-01T09:01:00.259Z,5.32
2023-08-01T09:03:27.837Z,3.70
2023-08-01T09:06:04.706Z,7.88
2023-08-01T09:08:37.061Z,5.93
2023-08-01T09:11:05.249Z,4.65
2023-08-01T09:13:32.906Z,6.15
2023-08-01T09:16:03.366Z,5.35
2023-08-01T09:18:30.879Z,4.18
2023-08-01T09:21:03.361Z,3.20
2023-08-01T09:23:31.634Z,7.25
2023-08-01T09:26:00.339Z,7.25
2023-08-01T09:28:28.726Z,7.03
2023-08-01T09:30:58.642Z,7.53
2023-08-01T09:33:26.439Z,6.37
2023-08-01T09:35:54.554Z,5.30
2023-08-01T09:38:24.328Z,4.40
2023-08-01T09:40:51.988Z,5.43
2023-08-01T09:43:19.517Z,5.35
2023-08-01T09:45:54.845Z,7.07
2023-08-01T09:48:27.583Z,5.78
2023-08-01T09:51:06.650Z,7.20
2023-08-01T09:53:36.386Z,7.50
2023-08-01T09:56:04.723Z,5.13
2023-08-01T09:58:35.015Z,6.53
2023-08-01T10:01:03.100Z,5.57
2023-08-01T10:03:31.329Z,5.53
2023-08-01T10:06:00.640Z,3.92
2023-08-01T10:08:29.746Z,6.07
2023-08-01T10:10:58.841Z,5.27
2023-08-01T10:13:26.531Z,5.05
2023-08-01T10:15:54.484Z,4.57
2023-08-01T10:18:22.615Z,5.22
2023-08-01T10:20:51.046Z,6.13
2023-08-01T10:23:19.693Z,7.30
2023-08-01T10:25:47.796Z,4.55
2023-08-01T10:28:16.725Z,4.93
2023-08-01T10:30:44.323Z,3.83
2023-08-01T10:33:14.010Z,9.63
2023-08-01T10:35:42.354Z,2.37
2023-08-01T10:38:11.845Z,5.15
2023-08-01T10:40:40.784Z,4.03
2023-08-01T10:43:08.498Z,6.40
2023-08-01T10:45:37.471Z,4.93
2023-08-01T10:48:09.409Z,4.43
2023-08-01T10:50:37.217Z,5.03
2023-08-01T10:53:06.232Z,5.07
2023-08-01T10:55:44.666Z,3.92
2023-08-01T10:58:12.417Z,4.60
2023-08-01T11:00:41.314Z,6.73
2023-08-01T11:03:08.962Z,6.18
2023-08-01T11:05:36.672Z,3.28
2023-08-01T11:08:07.039Z,2.45
2023-08-01T11:10:34.902Z,4.90
2023-08-01T11:13:02.472Z,5.33
2023-08-01T11:15:30.035Z,18.35
2023-08-01T11:17:58.904Z,3.92
2023-08-01T11:20:27.436Z,3.78
2023-08-01T11:22:58.314Z,8.63
2023-08-01T11:25:36.268Z,20.13
2023-08-01T11:28:07.091Z,10.07
2023-08-01T11:30:35.035Z,9.85
2023-08-01T11:33:05.557Z,6.25
2023-08-01T11:35:33.199Z,4.60
2023-08-01T11:38:00.843Z,5.40
2023-08-01T11:40:28.624Z,5.38
2023-08-01T11:42:59.226Z,3.47
2023-08-01T11:45:27.111Z,5.47
2023-08-01T11:47:54.749Z,3.30
2023-08-01T11:50:25.032Z,4.63
2023-08-01T11:52:52.582Z,2.30
2023-08-01T11:55:22.225Z,1.73
2023-08-01T11:57:57.017Z,4.63
2023-08-01T12:00:26.677Z,4.88
2023-08-01T12:03:04.599Z,3.47
2023-08-01T12:05:32.855Z,2.22
2023-08-01T12:08:10.466Z,3.28
2023-08-01T12:10:42.142Z,2.42
2023-08-01T12:13:21.871Z,4.90
2023-08-01T12:15:49.794Z,3.93
2023-08-01T12:18:39.194Z,4.07
2023-08-01T12:21:11.356Z,3.97
2023-08-01T12:23:38.898Z,5.88
2023-08-01T12:26:06.406Z,2.55
2023-08-01T12:28:33.945Z,4.70
2023-08-01T12:31:01.517Z,4.55
2023-08-01T12:33:29.103Z,1.55
2023-08-01T12:35:56.838Z,3.75
2023-08-01T12:38:25.652Z,3.90
2023-08-01T12:40:53.233Z,2.90
2023-08-01T12:43:21.041Z,7.80
2023-08-01T12:45:51.860Z,1.52
2023-08-01T12:48:21.063Z,1.60
2023-08-01T12:50:49.382Z,2.20
2023-08-01T12:53:17.021Z,2.33
2023-08-01T12:55:46.716Z,1.35
2023-08-01T12:58:14.736Z,3.53
2023-08-01T13:00:43.647Z,1.92
2023-08-01T13:03:11.411Z,2.97
2023-08-01T13:05:40.825Z,3.20
2023-08-01T13:08:08.595Z,3.03
2023-08-01T13:10:38.291Z,2.10
2023-08-01T13:13:07.569Z,4.32
2023-08-01T13:15:35.135Z,3.78
2023-08-01T13:18:02.918Z,3.63
2023-08-01T13:20:31.616Z,4.32
2023-08-01T13:23:00.350Z,4.43
2023-08-01T13:25:28.028Z,4.95
2023-08-01T13:27:55.527Z,4.75
2023-08-01T13:30:24.351Z,3.90
2023-08-01T13:32:51.908Z,9.20
2023-08-01T13:35:19.655Z,2.63
2023-08-01T13:37:47.161Z,4.03
2023-08-01T13:40:15.448Z,3.58
2023-08-01T13:42:43.087Z,4.43
2023-08-01T13:45:11.405Z,5.43
2023-08-01T13:47:40.325Z,3.50
2023-08-01T13:50:08.458Z,3.63
2023-08-01T13:52:35.973Z,3.88
2023-08-01T13:55:04.013Z,3.23
2023-08-01T13:57:31.908Z,4.20
2023-08-01T14:00:10.564Z,1.40
2023-08-01T14:02:41.827Z,2.03
2023-08-01T14:05:10.284Z,1.58
2023-08-01T14:07:40.635Z,3.13
2023-08-01T14:10:11.055Z,3.03
2023-08-01T14:12:38.771Z,6.13
2023-08-01T14:15:07.465Z,4.00
2023-08-01T14:17:35.109Z,2.92
2023-08-01T14:20:06.088Z,3.07
2023-08-01T14:22:33.571Z,4.22
2023-08-01T14:25:01.101Z,4.55
2023-08-01T14:27:28.673Z,4.95
2023-08-01T14:29:56.243Z,4.47
2023-08-01T14:32:23.767Z,2.80
2023-08-01T14:34:51.306Z,3.80
2023-08-01T14:37:20.266Z,4.00
2023-08-01T14:39:47.778Z,2.13
2023-08-01T14:42:15.232Z,3.40
2023-08-01T14:44:42.725Z,2.80
2023-08-01T14:47:10.242Z,3.65
2023-08-01T14:49:37.912Z,10.05
2023-08-01T14:52:06.373Z,4.97
2023-08-01T14:54:40.880Z,2.22
2023-08-01T14:57:09.340Z,3.87
2023-08-01T14:59:37.536Z,4.50
2023-08-01T15:02:05.945Z,2.75
2023-08-01T15:04:34.065Z,3.83
2023-08-01T15:07:03.782Z,4.57
2023-08-01T15:09:31.607Z,3.17
2023-08-01T15:12:00.494Z,4.38
2023-08-01T15:14:28.155Z,5.25
2023-08-01T15:16:56.372Z,3.00
2023-08-01T15:19:23.885Z,2.92
2023-08-01T15:21:51.406Z,4.53
2023-08-01T15:24:18.896Z,4.55
2023-08-01T15:26:46.432Z,3.92
2023-08-01T15:29:16.104Z,3.50
2023-08-01T15:31:43.673Z,3.78
2023-08-01T15:34:11.223Z,5.20
2023-08-01T15:36:38.786Z,3.22
2023-08-01T15:39:06.319Z,3.00
2023-08-01T15:41:33.844Z,2.88
2023-08-01T15:44:01.371Z,3.03
2023-08-01T15:46:30.544Z,4.00
2023-08-01T15:48:58.355Z,4.00
2023-08-01T15:51:25.889Z,3.75
2023-08-01T15:53:53.499Z,4.10
2023-08-01T15:56:21.033Z,4.88
2023-08-01T15:58:48.524Z,3.57
2023-08-01T16:01:16.064Z,6.60
2023-08-01T16:03:45.928Z,5.13
2023-08-01T16:06:15.252Z,3.20
2023-08-01T16:08:43.156Z,3.90
2023-08-01T16:11:10.660Z,2.83
2023-08-01T16:13:38.224Z,2.88
2023-08-01T16:16:06.909Z,2.55
2023-08-01T16:18:34.730Z,3.72
2023-08-01T16:21:03.717Z,3.05
2023-08-01T16:23:31.357Z,3.27
2023-08-01T16:26:00.464Z,3.25
2023-08-01T16:28:28.827Z,5.28
2023-08-01T16:30:56.546Z,7.20
2023-08-01T16:33:24.066Z,3.10
2023-08-01T16:35:51.549Z,2.03
2023-08-01T16:38:20.398Z,5.35
2023-08-01T16:40:50.340Z,3.53
2023-08-01T16:43:17.838Z,2.97
2023-08-01T16:45:45.401Z,2.67
2023-08-01T16:48:13.481Z,4.40
2023-08-01T16:50:41.396Z,2.85
2023-08-01T16:53:09.094Z,2.85
2023-08-01T16:55:38.575Z,4.40
2023-08-01T16:58:06.083Z,2.83
2023-08-01T17:00:33.618Z,1.30
2023-08-01T17:03:01.226Z,6.10
2023-08-01T17:05:28.851Z,2.47
2023-08-01T17:07:56.397Z,2.65
2023-08-01T17:10:23.910Z,3.63
2023-08-01T17:12:52.766Z,5.03
2023-08-01T17:15:20.259Z,1.98
2023-08-01T17:17:48.689Z,3.80
2023-08-01T17:20:16.512Z,2.63
2023-08-01T17:22:44.026Z,4.05
2023-08-01T17:25:11.595Z,5.27
2023-08-01T17:27:39.097Z,1.90
2023-08-01T17:30:09.510Z,2.90
2023-08-01T17:32:37.055Z,3.28
2023-08-01T17:35:04.953Z,3.10
2023-08-01T17:37:32.438Z,5.00
2023-08-01T17:39:59.926Z,6.80
2023-08-01T17:42:27.421Z,3.05
2023-08-01T17:44:54.917Z,7.07
2023-08-01T17:47:23.772Z,3.97
2023-08-01T17:49:51.276Z,4.07
2023-08-01T17:52:18.837Z,4.38
2023-08-01T17:54:46.393Z,3.90
2023-08-01T17:57:13.958Z,6.18
2023-08-01T17:59:41.517Z,5.18
2023-08-01T18:02:09.341Z,3.47
2023-08-01T18:04:38.480Z,4.57
2023-08-01T18:07:06.537Z,2.55
2023-08-01T18:09:34.176Z,4.68
2023-08-01T18:12:01.803Z,2.80
2023-08-01T18:14:29.313Z,4.50
2023-08-01T18:16:56.916Z,6.75
2023-08-01T18:19:24.608Z,3.97
2023-08-01T18:21:55.185Z,3.55
2023-08-01T18:24:22.800Z,4.35
2023-08-01T18:26:50.340Z,5.07
2023-08-01T18:29:17.946Z,3.53
2023-08-01T18:31:45.541Z,3.72
2023-08-01T18:34:13.137Z,3.80
2023-08-01T18:36:40.845Z,3.80
2023-08-01T18:39:09.920Z,3.87
2023-08-01T18:41:37.470Z,5.05
2023-08-01T18:44:05.187Z,5.07
2023-08-01T18:46:32.736Z,3.60
2023-08-01T18:49:00.233Z,3.15
2023-08-01T18:51:27.919Z,4.60
2023-08-01T18:53:55.430Z,7.32
2023-08-01T18:56:24.329Z,5.22
2023-08-01T18:58:51.915Z,5.10
2023-08-01T19:01:22.446Z,3.13
2023-08-01T19:03:50.133Z,6.57
2023-08-01T19:06:18.608Z,4.65
2023-08-01T19:08:46.616Z,10.55
2023-08-01T19:11:14.714Z,4.78
2023-08-01T19:13:43.719Z,4.53
2023-08-01T19:16:11.513Z,7.73
2023-08-01T19:18:39.057Z,6.07
2023-08-01T19:21:06.581Z,7.60
2023-08-01T19:23:35.888Z,7.20
2023-08-01T19:26:10.370Z,5.72
2023-08-01T19:28:38.069Z,5.97
2023-08-01T19:31:07.392Z,4.00
2023-08-01T19:33:34.950Z,5.53
2023-08-01T19:36:02.861Z,4.43
2023-08-01T19:38:30.495Z,4.97
2023-08-01T19:41:00.457Z,8.07
2023-08-01T19:43:30.139Z,10.20
2023-08-01T19:45:58.659Z,3.33
2023-08-01T19:48:27.692Z,9.30
2023-08-01T19:50:56.704Z,4.40
2023-08-01T19:53:25.407Z,5.47
2023-08-01T19:55:53.710Z,4.88
2023-08-01T19:58:21.655Z,4.88
2023-08-01T20:00:50.226Z,5.38
2023-08-01T20:03:18.345Z,7.63
2023-08-01T20:05:47.576Z,6.83
2023-08-01T20:08:15.210Z,6.78
2023-08-01T20:10:42.807Z,5.25
2023-08-01T20:13:10.385Z,4.00
2023-08-01T20:15:37.928Z,5.18
2023-08-01T20:18:05.446Z,5.77
2023-08-01T20:20:33.015Z,6.57
2023-08-01T20:23:01.929Z,7.53
2023-08-01T20:25:29.450Z,6.22
2023-08-01T20:27:56.999Z,4.45
2023-08-01T20:30:24.581Z,5.10
2023-08-01T20:32:52.128Z,5.45
2023-08-01T20:35:19.712Z,5.57
2023-08-01T20:37:47.330Z,5.50
2023-08-01T20:40:16.375Z,9.25
2023-08-01T20:42:43.902Z,6.53
2023-08-01T20:45:11.842Z,8.05
2023-08-01T20:47:39.405Z,5.60
2023-08-01T20:50:07.898Z,6.30
2023-08-01T20:52:35.361Z,7.22
2023-08-01T20:55:02.877Z,4.40
2023-08-01T20:57:31.792Z,4.40
2023-08-01T20:59:59.469Z,8.32
2023-08-01T21:02:27.173Z,7.32
2023-08-01T21:04:55.841Z,7.13
2023-08-01T21:07:23.454Z,5.37
2023-08-01T21:09:51.034Z,6.32
2023-08-01T21:12:18.526Z,4.65
2023-08-01T21:14:47.374Z,6.38
2023-08-01T21:17:14.852Z,4.55
2023-08-01T21:19:42.378Z,3.43
2023-08-01T21:22:08.942Z,3.58
2023-08-01T21:24:36.424Z,4.18
2023-08-01T21:27:04.261Z,5.05
2023-08-01T21:29:31.754Z,3.30
2023-08-01T21:32:00.651Z,5.97
2023-08-01T21:34:28.244Z,5.18
2023-08-01T21:36:55.734Z,9.05
2023-08-01T21:39:23.391Z,3.63
2023-08-01T21:41:50.928Z,3.92
2023-08-01T21:44:18.481Z,8.97
2023-08-01T21:46:46.017Z,8.18
2023-08-01T21:49:14.930Z,5.10
2023-08-01T21:51:42.418Z,5.43
2023-08-01T21:54:09.932Z,5.75
2023-08-01T21:56:37.441Z,7.67
2023-08-01T21:59:04.960Z,6.95
2023-08-01T22:01:32.593Z,4.57
2023-08-01T22:04:00.175Z,7.65
2023-08-01T22:06:29.176Z,6.72
2023-08-01T22:08:56.727Z,5.60
2023-08-01T22:11:24.318Z,6.28
2023-08-01T22:13:51.886Z,3.83
2023-08-01T22:16:19.468Z,4.13
2023-08-01T22:18:47.058Z,3.78
2023-08-01T22:21:14.571Z,4.43
2023-08-01T22:23:43.506Z,1.75
2023-08-01T22:26:11.039Z,3.72
2023-08-01T22:28:38.553Z,1.75
2023-08-01T22:31:06.285Z,3.28
2023-08-01T22:33:33.793Z,1.77
2023-08-01T22:36:01.277Z,4.85
2023-08-01T22:38:28.826Z,2.55
2023-08-01T22:40:57.650Z,2.53
2023-08-01T22:43:25.140Z,2.08
2023-08-01T22:45:56.597Z,6.70
2023-08-01T22:48:24.203Z,2.95
2023-08-01T22:50:51.825Z,3.05
2023-08-01T22:53:19.454Z,5.78
2023-08-01T22:55:49.264Z,1.98
2023-08-01T22:58:18.153Z,3.30
2023-08-01T23:00:46.562Z,3.60
2023-08-01T23:03:14.214Z,3.63
2023-08-01T23:05:41.897Z,4.20
2023-08-01T23:08:09.463Z,3.63
2023-08-01T23:10:44.338Z,11.03
2023-08-01T23:13:12.456Z,3.70
2023-08-01T23:15:41.407Z,5.10
2023-08-01T23:18:09.049Z,3.47
2023-08-01T23:20:36.696Z,2.97
2023-08-01T23:23:04.466Z,8.17
2023-08-01T23:25:32.030Z,5.18
2023-08-01T23:27:59.637Z,4.50
2023-08-01T23:30:27.275Z,6.20
2023-08-01T23:32:56.463Z,4.82
2023-08-01T23:35:24.530Z,3.87
2023-08-01T23:37:53.092Z,9.02
2023-08-01T23:40:21.279Z,5.38
2023-08-01T23:42:51.664Z,4.18
2023-08-01T23:45:19.208Z,7.03
2023-08-01T23:47:46.847Z,3.53
2023-08-01T23:50:15.746Z,6.88
2023-08-01T23:52:44.364Z,5.50
2023-08-01T23:55:12.131Z,5.57
2023-08-01T23:57:39.634Z,7.18
